createdAt,value
2017-11-11T00:00:21.581Z,998.9
2017-11-11T00:01:24.003Z,998.9
2017-11-11T00:02:27.145Z,998.9
2017-11-11T00:03:29.568Z,998.8
2017-11-11T00:04:32.005Z,998.8
2017-11-11T00:05:34.770Z,998.8
2017-11-11T00:06:37.187Z,998.8
2017-11-11T00:07:39.610Z,998.9
2017-11-11T00:08:42.037Z,998.9
2017-11-11T00:09:44.457Z,998.9
2017-11-11T00:10:46.872Z,998.9
2017-11-11T00:11:49.304Z,998.9
2017-11-11T00:12:51.717Z,998.9
2017-11-11T00:13:54.145Z,999
2017-11-11T00:14:56.914Z,998.8
2017-11-11T00:15:59.335Z,998.9
2017-11-11T00:17:02.129Z,998.8
2017-11-11T00:18:04.933Z,998.8
2017-11-11T00:19:07.563Z,998.8
2017-11-11T00:20:09.993Z,998.7
2017-11-11T00:21:12.405Z,998.8
2017-11-11T00:22:14.837Z,998.7
2017-11-11T00:23:17.253Z,998.8
2017-11-11T00:24:19.672Z,998.8
2017-11-11T00:25:22.102Z,998.8
2017-11-11T00:26:24.521Z,998.7
2017-11-11T00:27:26.942Z,998.8
2017-11-11T00:28:29.374Z,998.8
2017-11-11T00:29:31.805Z,998.9
2017-11-11T00:30:34.211Z,998.8
2017-11-11T00:31:36.646Z,998.9
2017-11-11T00:32:39.430Z,998.8
2017-11-11T00:33:41.847Z,998.7
2017-11-11T00:34:44.276Z,999
2017-11-11T00:35:46.699Z,998.9
2017-11-11T00:36:49.112Z,998.9
2017-11-11T00:37:51.553Z,999
2017-11-11T00:38:53.963Z,999
2017-11-11T00:39:56.387Z,999
2017-11-11T00:40:58.809Z,999
2017-11-11T00:42:01.242Z,999
2017-11-11T00:43:04.023Z,999
2017-11-11T00:44:06.826Z,999
2017-11-11T00:45:09.233Z,999
2017-11-11T00:46:11.659Z,999
2017-11-11T00:47:14.127Z,998.9
2017-11-11T00:48:16.570Z,998.9
2017-11-11T00:49:19.002Z,999
2017-11-11T00:50:21.433Z,998.9
2017-11-11T00:51:23.853Z,998.9
2017-11-11T00:52:26.274Z,998.9
2017-11-11T00:53:28.693Z,998.9
2017-11-11T00:54:31.467Z,998.9
2017-11-11T00:55:33.887Z,998.8
2017-11-11T00:56:36.315Z,998.9
2017-11-11T00:57:39.092Z,998.8
2017-11-11T00:58:41.524Z,998.8
2017-11-11T00:59:43.951Z,998.8
2017-11-11T01:00:46.375Z,998.9
2017-11-11T01:01:48.837Z,998.8
2017-11-11T01:02:51.249Z,998.9
2017-11-11T01:03:53.694Z,998.8
2017-11-11T01:04:56.116Z,998.8
2017-11-11T01:05:58.524Z,998.8
2017-11-11T01:07:01.308Z,998.8
2017-11-11T01:08:03.726Z,998.8
2017-11-11T01:09:06.156Z,998.8
2017-11-11T01:10:08.583Z,998.8
2017-11-11T01:11:10.998Z,998.8
2017-11-11T01:12:13.428Z,998.8
2017-11-11T01:13:15.859Z,998.9
2017-11-11T01:14:18.271Z,998.8
2017-11-11T01:15:20.697Z,998.8
2017-11-11T01:16:23.123Z,998.8
2017-11-11T01:17:25.545Z,998.8
2017-11-11T01:18:27.975Z,998.8
2017-11-11T01:19:30.411Z,998.9
2017-11-11T01:20:32.826Z,998.8
2017-11-11T01:21:35.244Z,998.8
2017-11-11T01:22:37.674Z,998.9
2017-11-11T01:23:40.094Z,998.9
2017-11-11T01:24:42.513Z,998.9
2017-11-11T01:25:45.300Z,998.9
2017-11-11T01:26:47.719Z,998.8
2017-11-11T01:27:50.516Z,998.8
2017-11-11T01:28:52.937Z,998.8
2017-11-11T01:29:55.344Z,998.8
2017-11-11T01:30:57.774Z,998.8
2017-11-11T01:32:00.200Z,998.8
2017-11-11T01:33:02.625Z,998.7
2017-11-11T01:34:05.047Z,998.7
2017-11-11T01:35:07.468Z,998.7
2017-11-11T01:36:09.889Z,998.7
2017-11-11T01:37:12.679Z,998.8
2017-11-11T01:38:15.462Z,998.7
2017-11-11T01:39:17.898Z,998.7
2017-11-11T01:40:20.705Z,998.8
2017-11-11T01:41:23.126Z,998.7
2017-11-11T01:42:25.542Z,998.7
2017-11-11T01:43:27.972Z,998.7
2017-11-11T01:44:30.383Z,998.7
2017-11-11T01:45:32.806Z,998.7
2017-11-11T01:46:35.237Z,998.7
2017-11-11T01:47:38.018Z,998.6
2017-11-11T01:48:40.450Z,998.7
2017-11-11T01:49:43.217Z,998.8
2017-11-11T01:50:45.628Z,998.7
2017-11-11T01:51:48.067Z,998.7
2017-11-11T01:52:50.484Z,998.7
2017-11-11T01:53:52.899Z,998.7
2017-11-11T01:54:55.333Z,998.7
2017-11-11T01:55:57.743Z,998.7
2017-11-11T01:57:00.169Z,998.6
2017-11-11T01:58:02.599Z,998.7
2017-11-11T01:59:05.016Z,998.7
2017-11-11T02:00:07.442Z,998.7
2017-11-11T02:01:09.848Z,998.7
2017-11-11T02:02:12.276Z,998.6
2017-11-11T02:03:14.694Z,998.6
2017-11-11T02:04:17.125Z,998.6
2017-11-11T02:05:19.542Z,998.6
2017-11-11T02:06:22.330Z,998.6
2017-11-11T02:07:24.745Z,998.6
2017-11-11T02:08:27.170Z,998.6
2017-11-11T02:09:29.599Z,998.5
2017-11-11T02:10:32.386Z,998.5
2017-11-11T02:11:34.798Z,998.5
2017-11-11T02:12:37.239Z,998.5
2017-11-11T02:13:39.659Z,998.4
2017-11-11T02:14:42.107Z,998.5
2017-11-11T02:15:44.885Z,998.5
2017-11-11T02:16:47.317Z,998.5
2017-11-11T02:17:49.742Z,998.5
2017-11-11T02:18:52.165Z,998.4
2017-11-11T02:19:54.584Z,998.5
2017-11-11T02:20:57.007Z,998.6
2017-11-11T02:21:59.425Z,998.5
2017-11-11T02:23:01.849Z,998.5
2017-11-11T02:24:04.629Z,998.6
2017-11-11T02:25:07.056Z,998.4
2017-11-11T02:26:09.465Z,998.5
2017-11-11T02:27:11.904Z,998.5
2017-11-11T02:28:14.334Z,998.5
2017-11-11T02:29:16.831Z,998.5
2017-11-11T02:30:19.355Z,998.5
2017-11-11T02:31:22.206Z,998.5
2017-11-11T02:32:25.004Z,998.4
2017-11-11T02:33:27.857Z,998.6
2017-11-11T02:34:30.314Z,998.6
2017-11-11T02:35:32.759Z,998.5
2017-11-11T02:36:35.235Z,998.5
2017-11-11T02:37:37.710Z,998.6
2017-11-11T02:38:40.179Z,998.5
2017-11-11T02:39:42.597Z,998.6
2017-11-11T02:40:45.438Z,998.5
2017-11-11T02:41:47.916Z,998.5
2017-11-11T02:42:50.372Z,998.5
2017-11-11T02:43:52.876Z,998.5
2017-11-11T02:44:55.338Z,998.5
2017-11-11T02:45:57.763Z,998.5
2017-11-11T02:47:00.242Z,998.4
2017-11-11T02:48:02.764Z,998.4
2017-11-11T02:49:05.969Z,998.4
2017-11-11T02:50:08.520Z,998.4
2017-11-11T02:51:11.326Z,998.3
2017-11-11T02:52:13.779Z,998.4
2017-11-11T02:53:16.965Z,998.4
2017-11-11T02:54:19.459Z,998.4
2017-11-11T02:55:22.244Z,998.4
2017-11-11T02:56:25.042Z,998.5
2017-11-11T02:57:27.480Z,998.4
2017-11-11T02:58:29.955Z,998.4
2017-11-11T02:59:32.394Z,998.3
2017-11-11T03:00:35.257Z,998.4
2017-11-11T03:01:38.083Z,998.4
2017-11-11T03:02:40.513Z,998.3
2017-11-11T03:03:43.328Z,998.4
2017-11-11T03:04:45.764Z,998.3
2017-11-11T03:05:48.197Z,998.3
2017-11-11T03:06:50.743Z,998.3
2017-11-11T03:07:53.123Z,998.3
2017-11-11T03:08:55.550Z,998.3
2017-11-11T03:09:58.112Z,998.3
2017-11-11T03:11:00.656Z,998.3
2017-11-11T03:12:03.121Z,998.3
2017-11-11T03:13:05.584Z,998.3
2017-11-11T03:14:08.012Z,998.3
2017-11-11T03:15:10.486Z,998.3
2017-11-11T03:16:12.915Z,998.3
2017-11-11T03:17:15.759Z,998.3
2017-11-11T03:18:18.256Z,998.3
2017-11-11T03:19:20.705Z,998.4
2017-11-11T03:20:23.145Z,998.4
2017-11-11T03:21:25.590Z,998.4
2017-11-11T03:22:28.090Z,998.3
2017-11-11T03:23:30.513Z,998.3
2017-11-11T03:24:32.955Z,998.3
2017-11-11T03:25:35.434Z,998.3
2017-11-11T03:26:37.868Z,998.4
2017-11-11T03:27:40.291Z,998.4
2017-11-11T03:28:42.761Z,998.4
2017-11-11T03:29:45.175Z,998.4
2017-11-11T03:30:47.669Z,998.3
2017-11-11T03:31:50.180Z,998.3
2017-11-11T03:32:52.689Z,998.3
2017-11-11T03:33:55.105Z,998.3
2017-11-11T03:34:57.554Z,998.3
2017-11-11T03:35:59.999Z,998.3
2017-11-11T03:37:02.442Z,998.3
2017-11-11T03:38:04.853Z,998.2
2017-11-11T03:39:07.649Z,998.2
2017-11-11T03:40:10.071Z,998.3
2017-11-11T03:41:12.508Z,998.2
2017-11-11T03:42:14.912Z,998.3
2017-11-11T03:43:17.337Z,998.2
2017-11-11T03:44:19.750Z,998.2
2017-11-11T03:45:22.176Z,998.2
2017-11-11T03:46:24.595Z,998.1
2017-11-11T03:47:27.019Z,998.1
2017-11-11T03:48:29.424Z,998.2
2017-11-11T03:49:31.870Z,998.2
2017-11-11T03:50:34.633Z,998.2
2017-11-11T03:51:37.083Z,998.2
2017-11-11T03:52:39.503Z,998.2
2017-11-11T03:53:41.931Z,998.2
2017-11-11T03:54:44.349Z,998.3
2017-11-11T03:55:46.784Z,998.3
2017-11-11T03:56:49.202Z,998.2
2017-11-11T03:57:51.617Z,998.1
2017-11-11T03:58:54.036Z,998.2
2017-11-11T03:59:56.470Z,998.2
2017-11-11T04:00:58.887Z,998.2
2017-11-11T04:02:01.304Z,998.1
2017-11-11T04:03:04.080Z,998.2
2017-11-11T04:04:06.490Z,998.1
2017-11-11T04:05:08.912Z,998.2
2017-11-11T04:06:11.340Z,998.2
2017-11-11T04:07:13.761Z,998.3
2017-11-11T04:08:16.537Z,998.3
2017-11-11T04:09:18.969Z,998.2
2017-11-11T04:10:21.768Z,998.2
2017-11-11T04:11:24.194Z,998.3
2017-11-11T04:12:26.961Z,998.3
2017-11-11T04:13:29.376Z,998.3
2017-11-11T04:14:32.171Z,998.2
2017-11-11T04:15:34.594Z,998.2
2017-11-11T04:16:37.014Z,998.1
2017-11-11T04:17:39.436Z,998.2
2017-11-11T04:18:42.213Z,998.3
2017-11-11T04:19:44.635Z,998.2
2017-11-11T04:20:47.059Z,998.2
2017-11-11T04:21:49.833Z,998.2
2017-11-11T04:22:52.255Z,998.2
2017-11-11T04:23:55.032Z,998.3
2017-11-11T04:24:57.452Z,998.3
2017-11-11T04:25:59.873Z,998.2
2017-11-11T04:27:02.301Z,998.2
2017-11-11T04:28:04.715Z,998.2
2017-11-11T04:29:07.138Z,998.2
2017-11-11T04:30:09.942Z,998.3
2017-11-11T04:31:12.377Z,998.3
2017-11-11T04:32:14.800Z,998.2
2017-11-11T04:33:17.561Z,998.3
2017-11-11T04:34:20.360Z,998.3
2017-11-11T04:35:22.777Z,998.2
2017-11-11T04:36:25.205Z,998.1
2017-11-11T04:37:27.615Z,998.2
2017-11-11T04:38:30.032Z,998.2
2017-11-11T04:39:32.451Z,998.2
2017-11-11T04:40:34.904Z,998.2
2017-11-11T04:41:37.321Z,998.1
2017-11-11T04:42:39.745Z,998.1
2017-11-11T04:43:42.163Z,998.1
2017-11-11T04:44:44.579Z,998
2017-11-11T04:45:47.010Z,998.1
2017-11-11T04:46:49.433Z,998
2017-11-11T04:47:51.841Z,998
2017-11-11T04:48:54.279Z,998
2017-11-11T04:49:56.729Z,998.1
2017-11-11T04:50:59.161Z,998.1
2017-11-11T04:52:01.576Z,998.1
2017-11-11T04:53:03.998Z,998.1
2017-11-11T04:54:06.406Z,998.2
2017-11-11T04:55:08.844Z,998.2
2017-11-11T04:56:11.260Z,998.2
2017-11-11T04:57:13.669Z,998.2
2017-11-11T04:58:16.093Z,998.3
2017-11-11T04:59:18.517Z,998.2
2017-11-11T05:00:20.940Z,998.3
2017-11-11T05:01:23.718Z,998.3
2017-11-11T05:02:26.139Z,998.2
2017-11-11T05:03:28.554Z,998.2
2017-11-11T05:04:31.348Z,998.2
2017-11-11T05:05:34.464Z,998.1
2017-11-11T05:06:36.883Z,998.1
2017-11-11T05:07:39.304Z,998.1
2017-11-11T05:08:41.723Z,998.1
2017-11-11T05:09:44.140Z,998.1
2017-11-11T05:10:46.573Z,998.1
2017-11-11T05:11:48.987Z,998.1
2017-11-11T05:12:51.406Z,998.1
2017-11-11T05:13:53.829Z,998.1
2017-11-11T05:14:56.260Z,998.1
2017-11-11T05:15:58.680Z,998.2
2017-11-11T05:17:01.102Z,998.2
2017-11-11T05:18:03.523Z,998.2
2017-11-11T05:19:05.956Z,998.2
2017-11-11T05:20:08.405Z,998.2
2017-11-11T05:21:10.784Z,998.1
2017-11-11T05:22:13.198Z,998.1
2017-11-11T05:23:15.618Z,998.2
2017-11-11T05:24:18.031Z,998.1
2017-11-11T05:25:20.459Z,998.1
2017-11-11T05:26:22.887Z,998.1
2017-11-11T05:27:25.314Z,998
2017-11-11T05:28:27.736Z,998.1
2017-11-11T05:29:30.157Z,998.1
2017-11-11T05:30:32.581Z,998.1
2017-11-11T05:31:35.740Z,998.1
2017-11-11T05:32:38.213Z,998.1
2017-11-11T05:33:40.641Z,998
2017-11-11T05:34:43.068Z,998.1
2017-11-11T05:35:45.485Z,998.2
2017-11-11T05:36:47.905Z,998.1
2017-11-11T05:37:50.332Z,998.1
2017-11-11T05:38:52.749Z,998.1
2017-11-11T05:39:55.176Z,998.1
2017-11-11T05:40:57.584Z,998.1
2017-11-11T05:42:00.006Z,998
2017-11-11T05:43:02.430Z,998.1
2017-11-11T05:44:04.853Z,998.1
2017-11-11T05:45:07.270Z,998
2017-11-11T05:46:09.705Z,998
2017-11-11T05:47:12.121Z,998.1
2017-11-11T05:48:14.559Z,998
2017-11-11T05:49:16.998Z,998.1
2017-11-11T05:50:19.394Z,998.1
2017-11-11T05:51:21.809Z,998
2017-11-11T05:52:24.233Z,998.1
2017-11-11T05:53:26.642Z,998.1
2017-11-11T05:54:29.078Z,998.2
2017-11-11T05:55:31.861Z,998.1
2017-11-11T05:56:34.258Z,998.1
2017-11-11T05:57:36.678Z,998.1
2017-11-11T05:58:39.101Z,998.1
2017-11-11T05:59:41.884Z,998.1
2017-11-11T06:00:44.663Z,998.1
2017-11-11T06:01:47.447Z,998.2
2017-11-11T06:02:49.861Z,998.2
2017-11-11T06:03:52.295Z,998.2
2017-11-11T06:04:54.724Z,998.2
2017-11-11T06:05:57.139Z,998.2
2017-11-11T06:06:59.560Z,998.2
2017-11-11T06:08:01.984Z,998.1
2017-11-11T06:09:04.399Z,998.1
2017-11-11T06:10:06.823Z,998.1
2017-11-11T06:11:09.227Z,998.1
2017-11-11T06:12:11.654Z,998
2017-11-11T06:13:14.118Z,998.1
2017-11-11T06:14:16.888Z,997.9
2017-11-11T06:15:19.312Z,998.1
2017-11-11T06:16:21.732Z,998
2017-11-11T06:17:24.151Z,998.1
2017-11-11T06:18:26.591Z,998
2017-11-11T06:19:29.363Z,998
2017-11-11T06:20:31.774Z,998
2017-11-11T06:21:34.622Z,997.9
2017-11-11T06:22:37.049Z,997.9
2017-11-11T06:23:39.470Z,998
2017-11-11T06:24:41.892Z,998
2017-11-11T06:25:44.301Z,998
2017-11-11T06:26:46.722Z,997.9
2017-11-11T06:27:49.137Z,997.9
2017-11-11T06:28:51.925Z,997.9
2017-11-11T06:29:54.688Z,997.8
2017-11-11T06:30:57.124Z,997.9
2017-11-11T06:31:59.563Z,997.9
2017-11-11T06:33:01.977Z,997.9
2017-11-11T06:34:04.401Z,998
2017-11-11T06:35:06.829Z,997.9
2017-11-11T06:36:09.248Z,997.9
2017-11-11T06:37:11.686Z,997.8
2017-11-11T06:38:14.110Z,997.8
2017-11-11T06:39:16.518Z,997.8
2017-11-11T06:40:18.934Z,997.8
2017-11-11T06:41:21.362Z,997.8
2017-11-11T06:42:23.779Z,997.8
2017-11-11T06:43:26.208Z,997.8
2017-11-11T06:44:28.612Z,997.7
2017-11-11T06:45:31.032Z,997.7
2017-11-11T06:46:33.452Z,997.8
2017-11-11T06:47:35.871Z,997.7
2017-11-11T06:48:38.292Z,997.7
2017-11-11T06:49:40.711Z,997.8
2017-11-11T06:50:43.132Z,997.9
2017-11-11T06:51:45.921Z,997.8
2017-11-11T06:52:48.347Z,997.8
2017-11-11T06:53:50.762Z,997.8
2017-11-11T06:54:53.185Z,997.9
2017-11-11T06:55:55.972Z,997.8
2017-11-11T06:56:58.391Z,997.9
2017-11-11T06:58:00.812Z,997.9
2017-11-11T06:59:03.238Z,997.9
2017-11-11T07:00:05.663Z,997.9
2017-11-11T07:01:08.078Z,997.9
2017-11-11T07:02:10.511Z,997.8
2017-11-11T07:03:13.280Z,997.8
2017-11-11T07:04:15.703Z,997.9
2017-11-11T07:05:18.120Z,997.9
2017-11-11T07:06:20.539Z,997.9
2017-11-11T07:07:22.963Z,997.9
2017-11-11T07:08:25.384Z,997.9
2017-11-11T07:09:27.799Z,997.9
2017-11-11T07:10:30.234Z,997.9
2017-11-11T07:11:32.643Z,997.8
2017-11-11T07:12:35.071Z,997.8
2017-11-11T07:13:37.489Z,997.8
2017-11-11T07:14:40.269Z,997.8
2017-11-11T07:15:42.686Z,997.8
2017-11-11T07:16:45.190Z,997.8
2017-11-11T07:17:47.604Z,997.8
2017-11-11T07:18:50.389Z,997.8
2017-11-11T07:19:52.813Z,997.8
2017-11-11T07:20:55.237Z,997.8
2017-11-11T07:21:57.658Z,997.8
2017-11-11T07:23:00.076Z,997.8
2017-11-11T07:24:02.491Z,997.8
2017-11-11T07:25:04.906Z,997.7
2017-11-11T07:26:07.335Z,997.7
2017-11-11T07:27:09.767Z,997.8
2017-11-11T07:28:12.195Z,997.8
2017-11-11T07:29:14.604Z,997.7
2017-11-11T07:30:17.024Z,997.8
2017-11-11T07:31:19.453Z,997.8
2017-11-11T07:32:21.875Z,997.8
2017-11-11T07:33:24.299Z,997.7
2017-11-11T07:34:26.709Z,997.8
2017-11-11T07:35:29.125Z,997.7
2017-11-11T07:36:31.561Z,997.7
2017-11-11T07:37:33.988Z,997.7
2017-11-11T07:38:36.407Z,997.7
2017-11-11T07:39:38.823Z,997.8
2017-11-11T07:40:41.238Z,997.7
2017-11-11T07:41:43.675Z,997.7
2017-11-11T07:42:46.094Z,997.8
2017-11-11T07:43:49.287Z,997.7
2017-11-11T07:44:51.714Z,997.8
2017-11-11T07:45:54.134Z,997.8
2017-11-11T07:46:56.922Z,997.7
2017-11-11T07:47:59.346Z,997.7
2017-11-11T07:49:01.758Z,997.7
2017-11-11T07:50:04.178Z,997.7
2017-11-11T07:51:06.609Z,997.7
2017-11-11T07:52:09.024Z,997.7
2017-11-11T07:53:11.445Z,997.7
2017-11-11T07:54:13.864Z,997.8
2017-11-11T07:55:16.292Z,997.8
2017-11-11T07:56:18.705Z,997.7
2017-11-11T07:57:21.130Z,997.7
2017-11-11T07:58:23.550Z,997.7
2017-11-11T07:59:25.976Z,997.7
2017-11-11T08:00:28.387Z,997.7
2017-11-11T08:01:30.819Z,997.7
2017-11-11T08:02:33.226Z,997.8
2017-11-11T08:03:35.657Z,997.7
2017-11-11T08:04:38.074Z,997.8
2017-11-11T08:05:40.497Z,997.7
2017-11-11T08:06:42.917Z,997.7
2017-11-11T08:07:45.355Z,997.7
2017-11-11T08:08:47.765Z,997.7
2017-11-11T08:09:50.564Z,997.7
2017-11-11T08:10:52.981Z,997.6
2017-11-11T08:11:55.411Z,997.6
2017-11-11T08:12:58.184Z,997.4
2017-11-11T08:14:00.621Z,997.4
2017-11-11T08:15:03.398Z,997.5
2017-11-11T08:16:05.847Z,997.5
2017-11-11T08:17:08.283Z,997.4
2017-11-11T08:18:10.706Z,997.5
2017-11-11T08:19:13.488Z,997.4
2017-11-11T08:20:15.915Z,997.5
2017-11-11T08:21:18.683Z,997.5
2017-11-11T08:22:21.472Z,997.4
2017-11-11T08:23:23.885Z,997.5
2017-11-11T08:24:26.301Z,997.5
2017-11-11T08:25:28.742Z,997.4
2017-11-11T08:26:31.527Z,997.4
2017-11-11T08:27:33.950Z,997.5
2017-11-11T08:28:36.732Z,997.4
2017-11-11T08:29:39.152Z,997.5
2017-11-11T08:30:41.574Z,997.4
2017-11-11T08:31:44.367Z,997.4
2017-11-11T08:32:46.789Z,997.4
2017-11-11T08:33:49.198Z,997.4
2017-11-11T08:34:51.985Z,997.4
2017-11-11T08:35:54.397Z,997.4
2017-11-11T08:36:56.824Z,997.5
2017-11-11T08:37:59.248Z,997.4
2017-11-11T08:39:01.669Z,997.4
2017-11-11T08:40:04.089Z,997.5
2017-11-11T08:41:06.519Z,997.3
2017-11-11T08:42:08.949Z,997.4
2017-11-11T08:43:11.355Z,997.4
2017-11-11T08:44:13.783Z,997.4
2017-11-11T08:45:16.575Z,997.4
2017-11-11T08:46:19.010Z,997.4
2017-11-11T08:47:21.420Z,997.4
2017-11-11T08:48:23.829Z,997.4
2017-11-11T08:49:26.252Z,997.3
2017-11-11T08:50:29.041Z,997.3
2017-11-11T08:51:31.460Z,997.4
2017-11-11T08:52:33.882Z,997.4
2017-11-11T08:53:36.311Z,997.3
2017-11-11T08:54:39.093Z,997.4
2017-11-11T08:55:41.509Z,997.4
2017-11-11T08:56:43.942Z,997.4
2017-11-11T08:57:46.356Z,997.3
2017-11-11T08:58:48.776Z,997.4
2017-11-11T08:59:51.193Z,997.4
2017-11-11T09:00:53.614Z,997.4
2017-11-11T09:01:56.041Z,997.4
2017-11-11T09:02:58.475Z,997.3
2017-11-11T09:04:00.913Z,997.4
2017-11-11T09:05:04.079Z,997.4
2017-11-11T09:06:06.525Z,997.4
2017-11-11T09:07:09.007Z,997.4
2017-11-11T09:08:11.435Z,997.4
2017-11-11T09:09:13.881Z,997.4
2017-11-11T09:10:16.301Z,997.4
2017-11-11T09:11:18.903Z,997.4
2017-11-11T09:12:21.338Z,997.4
2017-11-11T09:13:23.776Z,997.5
2017-11-11T09:14:26.612Z,997.4
2017-11-11T09:15:29.594Z,997.4
2017-11-11T09:16:32.371Z,997.5
2017-11-11T09:17:41.807Z,997.4
2017-11-11T09:18:44.179Z,997.4
2017-11-11T09:19:46.559Z,997.4
2017-11-11T09:20:49.277Z,997.3
2017-11-11T09:21:51.658Z,997.5
2017-11-11T09:22:54.398Z,997.4
2017-11-11T09:23:56.757Z,997.4
2017-11-11T09:24:59.121Z,997.4
2017-11-11T09:26:01.492Z,997.3
2017-11-11T09:27:03.855Z,997.4
2017-11-11T09:28:06.225Z,997.4
2017-11-11T09:29:08.597Z,997.4
2017-11-11T09:30:10.978Z,997.4
2017-11-11T09:31:14.063Z,997.3
2017-11-11T09:32:16.440Z,997.3
2017-11-11T09:33:18.797Z,997.3
2017-11-11T09:34:21.166Z,997.3
2017-11-11T09:35:23.534Z,997.2
2017-11-11T09:36:26.268Z,997.3
2017-11-11T09:37:29.344Z,997.3
2017-11-11T09:38:31.706Z,997.3
2017-11-11T09:39:34.086Z,997.3
2017-11-11T09:40:36.466Z,997.3
2017-11-11T09:41:38.840Z,997.3
2017-11-11T09:42:41.207Z,997.3
2017-11-11T09:43:43.572Z,997.1
2017-11-11T09:44:45.940Z,997.2
2017-11-11T09:45:48.325Z,997.3
2017-11-11T09:46:51.047Z,997.3
2017-11-11T09:47:53.404Z,997.3
2017-11-11T09:48:55.775Z,997.3
2017-11-11T09:49:58.165Z,997.2
2017-11-11T09:51:00.536Z,997.2
2017-11-11T09:52:02.919Z,997.2
2017-11-11T09:53:05.295Z,997.3
2017-11-11T09:54:08.014Z,997.2
2017-11-11T09:55:10.379Z,997.3
2017-11-11T09:56:12.773Z,997.3
2017-11-11T09:57:15.135Z,997.4
2017-11-11T09:58:17.532Z,997.3
2017-11-11T09:59:19.898Z,997.3
2017-11-11T10:00:22.274Z,997.3
2017-11-11T10:01:24.653Z,997.3
2017-11-11T10:02:27.023Z,997.2
2017-11-11T10:03:29.392Z,997.3
2017-11-11T10:04:31.757Z,997.2
2017-11-11T10:05:34.125Z,997.2
2017-11-11T10:06:36.511Z,997.2
2017-11-11T10:07:38.882Z,997.2
2017-11-11T10:08:41.245Z,997.1
2017-11-11T10:09:46.731Z,997.2
2017-11-11T10:10:49.460Z,997.1
2017-11-11T10:11:52.873Z,997.1
2017-11-11T10:12:55.685Z,997.1
2017-11-11T10:13:58.139Z,997.1
2017-11-11T10:15:00.560Z,997
2017-11-11T10:16:02.992Z,997.1
2017-11-11T10:17:05.796Z,997.1
2017-11-11T10:18:08.252Z,997.1
2017-11-11T10:19:11.073Z,997.1
2017-11-11T10:20:13.500Z,997
2017-11-11T10:21:15.916Z,997
2017-11-11T10:22:18.377Z,997
2017-11-11T10:23:20.789Z,997
2017-11-11T10:24:23.584Z,996.9
2017-11-11T10:25:26.391Z,996.9
2017-11-11T10:26:29.172Z,996.8
2017-11-11T10:27:31.596Z,996.9
2017-11-11T10:28:34.389Z,996.9
2017-11-11T10:29:36.806Z,996.9
2017-11-11T10:30:39.257Z,996.8
2017-11-11T10:31:41.763Z,996.8
2017-11-11T10:32:44.183Z,996.8
2017-11-11T10:33:46.632Z,996.8
2017-11-11T10:34:49.061Z,996.8
2017-11-11T10:35:51.482Z,996.8
2017-11-11T10:36:54.301Z,996.8
2017-11-11T10:37:56.719Z,996.8
2017-11-11T10:38:59.522Z,996.9
2017-11-11T10:40:01.957Z,996.8
2017-11-11T10:41:04.741Z,996.8
2017-11-11T10:42:07.160Z,996.8
2017-11-11T10:43:09.593Z,996.9
2017-11-11T10:44:12.381Z,996.8
2017-11-11T10:45:14.839Z,996.8
2017-11-11T10:46:17.288Z,996.8
2017-11-11T10:47:19.703Z,996.8
2017-11-11T10:48:22.150Z,996.8
2017-11-11T10:49:24.595Z,996.8
2017-11-11T10:50:27.020Z,996.7
2017-11-11T10:51:29.835Z,996.7
2017-11-11T10:52:32.272Z,996.7
2017-11-11T10:53:34.699Z,996.7
2017-11-11T10:54:37.474Z,996.8
2017-11-11T10:55:39.882Z,996.7
2017-11-11T10:56:42.316Z,996.7
2017-11-11T10:57:45.085Z,996.7
2017-11-11T10:58:47.867Z,996.6
2017-11-11T10:59:50.291Z,996.6
2017-11-11T11:00:53.104Z,996.6
2017-11-11T11:01:55.532Z,996.6
2017-11-11T11:02:57.963Z,996.6
2017-11-11T11:04:00.398Z,996.6
2017-11-11T11:05:02.818Z,996.6
2017-11-11T11:06:05.238Z,996.6
2017-11-11T11:07:08.014Z,996.6
2017-11-11T11:08:10.448Z,996.6
2017-11-11T11:09:13.248Z,996.6
2017-11-11T11:10:15.711Z,996.5
2017-11-11T11:11:18.144Z,996.6
2017-11-11T11:12:20.556Z,996.6
2017-11-11T11:13:22.987Z,996.6
2017-11-11T11:14:25.406Z,996.6
2017-11-11T11:15:27.834Z,996.6
2017-11-11T11:16:30.259Z,996.6
2017-11-11T11:17:32.692Z,996.5
2017-11-11T11:18:35.105Z,996.5
2017-11-11T11:19:38.242Z,996.5
2017-11-11T11:20:41.033Z,996.5
2017-11-11T11:21:43.822Z,996.5
2017-11-11T11:22:46.599Z,996.5
2017-11-11T11:23:49.022Z,996.5
2017-11-11T11:24:51.438Z,996.4
2017-11-11T11:25:53.997Z,996.5
2017-11-11T11:26:56.421Z,996.4
2017-11-11T11:27:58.857Z,996.4
2017-11-11T11:29:01.277Z,996.4
2017-11-11T11:30:03.701Z,996.5
2017-11-11T11:31:06.123Z,996.5
2017-11-11T11:32:08.914Z,996.4
2017-11-11T11:33:11.343Z,996.4
2017-11-11T11:34:13.759Z,996.4
2017-11-11T11:35:16.180Z,996.4
2017-11-11T11:36:18.605Z,996.4
2017-11-11T11:37:21.037Z,996.4
2017-11-11T11:38:23.461Z,996.4
2017-11-11T11:39:25.886Z,996.3
2017-11-11T11:40:28.304Z,996.3
2017-11-11T11:41:30.725Z,996.4
2017-11-11T11:42:33.171Z,996.3
2017-11-11T11:43:35.607Z,996.3
2017-11-11T11:44:38.035Z,996.4
2017-11-11T11:45:40.459Z,996.4
2017-11-11T11:46:42.886Z,996.3
2017-11-11T11:47:45.319Z,996.3
2017-11-11T11:48:47.744Z,996.3
2017-11-11T11:49:50.155Z,996.3
2017-11-11T11:50:52.578Z,996.3
2017-11-11T11:51:55.000Z,996.3
2017-11-11T11:52:57.417Z,996.3
2017-11-11T11:53:59.839Z,996.2
2017-11-11T11:55:02.266Z,996.2
2017-11-11T11:56:05.450Z,996.2
2017-11-11T11:57:07.869Z,996.2
2017-11-11T11:58:10.301Z,996.1
2017-11-11T11:59:12.730Z,996.2
2017-11-11T12:00:15.153Z,996.1
2017-11-11T12:01:17.574Z,996
2017-11-11T12:02:20.356Z,996.1
2017-11-11T12:03:22.783Z,996.1
2017-11-11T12:04:25.946Z,996
2017-11-11T12:05:28.731Z,996
2017-11-11T12:06:31.509Z,996
2017-11-11T12:07:34.309Z,996
2017-11-11T12:08:36.736Z,996
2017-11-11T12:09:39.150Z,996
2017-11-11T12:10:41.578Z,995.9
2017-11-11T12:11:44.002Z,995.9
2017-11-11T12:12:46.431Z,995.9
2017-11-11T12:13:48.856Z,995.9
2017-11-11T12:14:51.286Z,995.9
2017-11-11T12:15:53.706Z,995.9
2017-11-11T12:16:56.505Z,995.9
2017-11-11T12:17:58.916Z,995.8
2017-11-11T12:19:01.338Z,995.8
2017-11-11T12:20:03.765Z,995.7
2017-11-11T12:21:06.190Z,995.8
2017-11-11T12:22:08.613Z,995.8
2017-11-11T12:23:11.042Z,995.8
2017-11-11T12:24:13.513Z,995.7
2017-11-11T12:25:15.957Z,995.8
2017-11-11T12:26:18.774Z,995.8
2017-11-11T12:27:21.226Z,995.8
2017-11-11T12:28:23.685Z,995.8
2017-11-11T12:29:26.150Z,995.8
2017-11-11T12:30:28.618Z,995.8
2017-11-11T12:31:31.399Z,995.8
2017-11-11T12:32:33.837Z,995.7
2017-11-11T12:33:36.613Z,995.8
2017-11-11T12:34:39.075Z,995.7
2017-11-11T12:35:41.513Z,995.7
2017-11-11T12:36:43.963Z,995.7
2017-11-11T12:37:46.421Z,995.7
2017-11-11T12:38:48.859Z,995.7
2017-11-11T12:39:51.317Z,995.7
2017-11-11T12:40:53.767Z,995.6
2017-11-11T12:41:56.210Z,995.6
2017-11-11T12:42:58.645Z,995.6
2017-11-11T12:44:01.107Z,995.6
2017-11-11T12:45:03.560Z,995.6
2017-11-11T12:46:06.046Z,995.7
2017-11-11T12:47:08.593Z,995.7
2017-11-11T12:48:11.040Z,995.6
2017-11-11T12:49:13.885Z,995.6
2017-11-11T12:50:16.349Z,995.6
2017-11-11T12:51:19.196Z,995.6
2017-11-11T12:53:54.085Z,995.6
2017-11-11T12:54:56.449Z,995.5
2017-11-11T12:55:58.822Z,995.5
2017-11-11T12:57:01.197Z,995.6
2017-11-11T12:58:03.575Z,995.6
2017-11-11T12:59:06.071Z,995.6
2017-11-11T13:00:08.446Z,995.6
2017-11-11T13:01:11.174Z,995.6
2017-11-11T13:02:13.546Z,995.6
2017-11-11T13:03:16.274Z,995.6
2017-11-11T13:04:18.650Z,995.6
2017-11-11T13:05:21.012Z,995.6
2017-11-11T13:06:23.385Z,995.6
2017-11-11T13:07:25.756Z,995.6
2017-11-11T13:08:28.130Z,995.6
2017-11-11T13:09:30.521Z,995.6
2017-11-11T13:10:32.893Z,995.6
2017-11-11T13:11:35.309Z,995.6
2017-11-11T13:12:38.620Z,995.6
2017-11-11T13:13:41.002Z,995.6
2017-11-11T13:14:43.373Z,995.6
2017-11-11T13:15:49.444Z,995.5
2017-11-11T13:16:58.444Z,995.5
2017-11-11T13:18:02.062Z,995.5
2017-11-11T13:19:09.440Z,995.5
2017-11-11T13:20:17.849Z,995.5
2017-11-11T13:21:20.253Z,995.5
2017-11-11T13:22:22.950Z,995.5
2017-11-11T13:23:25.327Z,995.5
2017-11-11T13:24:27.691Z,995.6
2017-11-11T13:25:30.069Z,995.5
2017-11-11T13:26:32.446Z,995.5
2017-11-11T13:27:34.817Z,995.6
2017-11-11T13:28:37.205Z,995.5
2017-11-11T13:29:39.566Z,995.6